createdAt,value
2023-03-27T00:01:15.913Z,72.40
2023-03-27T00:03:43.029Z,72.72
2023-03-27T00:06:16.948Z,72.83
2023-03-27T00:08:44.839Z,72.97
2023-03-27T00:11:12.056Z,73.28
2023-03-27T00:13:49.539Z,73.52
2023-03-27T00:16:17.343Z,73.09
2023-03-27T00:18:45.037Z,73.09
2023-03-27T00:21:11.754Z,72.75
2023-03-27T00:23:38.239Z,72.87
2023-03-27T00:26:05.474Z,73.14
2023-03-27T00:28:32.266Z,73.35
2023-03-27T00:30:59.252Z,73.24
2023-03-27T00:33:26.059Z,73.55
2023-03-27T00:35:53.184Z,73.50
2023-03-27T00:38:20.829Z,73.71
2023-03-27T00:40:49.177Z,73.76
2023-03-27T00:43:19.200Z,73.58
2023-03-27T00:45:47.116Z,74.00
2023-03-27T00:48:14.953Z,73.98
2023-03-27T00:50:44.214Z,73.96
2023-03-27T00:53:15.921Z,74.14
2023-03-27T00:55:47.012Z,74.25
2023-03-27T00:58:27.386Z,74.24
2023-03-27T01:00:55.824Z,74.26
2023-03-27T01:06:04.639Z,74.37
2023-03-27T01:08:33.726Z,74.07
2023-03-27T01:11:26.255Z,74.24
2023-03-27T01:13:58.599Z,74.16
2023-03-27T01:16:53.051Z,73.68
2023-03-27T01:19:38.231Z,73.50
2023-03-27T01:22:48.708Z,73.84
2023-03-27T01:25:32.636Z,73.76
2023-03-27T01:28:02.732Z,73.87
2023-03-27T01:30:38.567Z,73.48
2023-03-27T01:33:38.671Z,74.16
2023-03-27T01:36:37.207Z,74.42
2023-03-27T01:39:13.623Z,74.38
2023-03-27T01:42:05.773Z,73.61
2023-03-27T01:45:02.908Z,73.33
2023-03-27T01:48:04.555Z,73.58
2023-03-27T01:50:36.830Z,73.14
2023-03-27T01:53:12.218Z,73.64
2023-03-27T01:55:45.359Z,73.37
2023-03-27T01:58:17.005Z,73.72
2023-03-27T02:00:52.636Z,73.85
2023-03-27T02:03:26.879Z,73.58
2023-03-27T02:06:00.152Z,74.00
2023-03-27T02:08:37.603Z,73.84
2023-03-27T02:11:04.647Z,73.50
2023-03-27T02:13:47.804Z,73.23
2023-03-27T02:16:19.440Z,73.66
2023-03-27T02:18:54.261Z,73.54
2023-03-27T02:21:23.486Z,73.85
2023-03-27T02:23:50.147Z,74.41
2023-03-27T02:26:16.636Z,74.65
2023-03-27T02:29:25.391Z,74.72
2023-03-27T02:32:12.969Z,75.04
2023-03-27T02:34:58.642Z,74.81
2023-03-27T02:37:53.003Z,74.87
2023-03-27T02:40:39.851Z,74.61
2023-03-27T02:43:14.612Z,74.24
2023-03-27T02:45:44.740Z,74.80
2023-03-27T02:48:33.675Z,74.60
2023-03-27T02:51:11.156Z,74.77
2023-03-27T02:53:45.583Z,74.70
2023-03-27T02:56:14.912Z,75.20
2023-03-27T02:58:45.343Z,75.04
2023-03-27T03:01:13.708Z,75.37
2023-03-27T03:03:53.488Z,75.07
2023-03-27T03:06:22.011Z,75.20
2023-03-27T03:08:49.082Z,75.64
2023-03-27T03:11:15.714Z,75.57
2023-03-27T03:13:42.156Z,75.70
2023-03-27T03:16:10.085Z,76.02
2023-03-27T03:18:36.900Z,76.08
2023-03-27T03:21:04.521Z,76.54
2023-03-27T03:23:30.994Z,76.35
2023-03-27T03:25:57.348Z,76.28
2023-03-27T03:28:27.188Z,76.80
2023-03-27T03:30:54.215Z,76.55
2023-03-27T03:33:21.235Z,76.43
2023-03-27T03:35:49.488Z,76.69
2023-03-27T03:38:24.911Z,76.43
2023-03-27T03:40:55.880Z,76.84
2023-03-27T03:43:24.085Z,76.72
2023-03-27T03:45:51.085Z,76.51
2023-03-27T03:48:18.399Z,76.69
2023-03-27T03:50:46.613Z,76.60
2023-03-27T03:53:19.723Z,76.72
2023-03-27T03:55:46.520Z,76.32
2023-03-27T03:58:12.906Z,76.74
2023-03-27T04:00:39.823Z,76.37
2023-03-27T04:03:08.927Z,76.34
2023-03-27T04:05:37.168Z,76.52
2023-03-27T04:08:07.251Z,76.56
2023-03-27T04:10:36.378Z,76.54
2023-03-27T04:13:03.117Z,76.98
2023-03-27T04:15:29.499Z,76.48
2023-03-27T04:17:57.698Z,76.43
2023-03-27T04:20:26.438Z,76.74
2023-03-27T04:22:54.349Z,76.73
2023-03-27T04:25:23.477Z,76.44
2023-03-27T04:27:53.207Z,76.81
2023-03-27T04:30:23.048Z,76.82
2023-03-27T04:32:53.207Z,76.91
2023-03-27T04:35:21.091Z,76.67
2023-03-27T04:37:48.510Z,76.82
2023-03-27T04:40:18.075Z,76.45
2023-03-27T04:42:45.078Z,76.52
2023-03-27T04:45:14.242Z,76.51
2023-03-27T04:47:41.005Z,76.76
2023-03-27T04:50:08.165Z,76.85
2023-03-27T04:52:34.916Z,76.42
2023-03-27T04:55:01.766Z,76.51
2023-03-27T04:57:30.803Z,76.94
2023-03-27T04:59:58.841Z,76.05
2023-03-27T05:02:26.462Z,76.32
2023-03-27T05:04:58.393Z,76.35
2023-03-27T05:07:26.461Z,75.94
2023-03-27T05:09:52.996Z,76.16
2023-03-27T05:12:20.830Z,76.05
2023-03-27T05:14:48.504Z,76.08
2023-03-27T05:17:16.406Z,75.90
2023-03-27T05:19:43.439Z,75.64
2023-03-27T05:22:09.810Z,75.68
2023-03-27T05:24:36.146Z,76.27
2023-03-27T05:27:02.707Z,76.02
2023-03-27T05:29:29.244Z,76.26
2023-03-27T05:32:12.731Z,76.38
2023-03-27T05:34:39.074Z,75.60
2023-03-27T05:37:06.220Z,75.85
2023-03-27T05:39:32.566Z,76.11
2023-03-27T05:41:58.981Z,75.88
2023-03-27T05:44:25.657Z,75.68
2023-03-27T05:46:52.352Z,76.04
2023-03-27T05:49:18.808Z,75.73
2023-03-27T05:51:47.131Z,76.00
2023-03-27T05:54:13.878Z,75.96
2023-03-27T05:56:40.466Z,75.92
2023-03-27T05:59:06.969Z,76.24
2023-03-27T06:01:35.708Z,76.18
2023-03-27T06:04:02.214Z,76.09
2023-03-27T06:06:28.685Z,75.64
2023-03-27T06:08:56.016Z,76.09
2023-03-27T06:11:22.607Z,75.82
2023-03-27T06:13:49.401Z,76.47
2023-03-27T06:16:16.811Z,76.37
2023-03-27T06:18:43.275Z,76.55
2023-03-27T06:21:09.684Z,76.18
2023-03-27T06:23:36.111Z,76.50
2023-03-27T06:26:02.583Z,76.24
2023-03-27T06:28:29.728Z,76.24
2023-03-27T06:30:57.699Z,76.51
2023-03-27T06:33:27.624Z,76.42
2023-03-27T06:36:00.545Z,76.25
2023-03-27T06:38:31.179Z,76.04
2023-03-27T06:40:59.679Z,76.16
2023-03-27T06:43:26.207Z,76.06
2023-03-27T06:45:53.181Z,75.60
2023-03-27T06:48:22.310Z,75.88
2023-03-27T06:50:50.909Z,75.56
2023-03-27T06:55:48.595Z,74.76
2023-03-27T06:58:16.652Z,74.94
2023-03-27T07:00:44.300Z,75.57
2023-03-27T07:03:11.830Z,75.12
2023-03-27T07:05:40.612Z,75.07
2023-03-27T07:08:21.815Z,74.75
2023-03-27T07:10:59.991Z,74.03
2023-03-27T07:13:34.635Z,74.37
2023-03-27T07:16:00.964Z,74.06
2023-03-27T07:18:27.333Z,74.18
2023-03-27T07:20:53.749Z,74.33
2023-03-27T07:23:20.383Z,73.88
2023-03-27T07:25:49.824Z,74.33
2023-03-27T07:28:18.160Z,74.26
2023-03-27T07:30:44.604Z,74.20
2023-03-27T07:33:12.208Z,73.67
2023-03-27T07:35:43.178Z,71.47
2023-03-27T07:38:10.502Z,72.09
2023-03-27T07:40:40.580Z,72.25
2023-03-27T07:43:07.618Z,70.86
2023-03-27T07:45:35.441Z,70.66
2023-03-27T07:48:10.996Z,70.31
2023-03-27T07:50:37.968Z,69.93
2023-03-27T07:53:06.382Z,68.62
2023-03-27T07:55:33.519Z,70.21
2023-03-27T07:58:02.870Z,70.30
2023-03-27T08:00:31.287Z,70.22
2023-03-27T08:03:09.374Z,69.78
2023-03-27T08:05:36.417Z,69.50
2023-03-27T08:08:03.274Z,70.17
2023-03-27T08:10:29.620Z,69.68
2023-03-27T08:12:56.134Z,69.67
2023-03-27T08:15:24.888Z,70.11
2023-03-27T08:17:54.279Z,69.71
2023-03-27T08:20:23.062Z,70.19
2023-03-27T08:22:52.744Z,69.11
2023-03-27T08:25:19.812Z,70.00
2023-03-27T08:27:46.655Z,70.02
2023-03-27T08:30:16.654Z,70.76
2023-03-27T08:32:43.921Z,69.65
2023-03-27T08:35:10.592Z,69.81
2023-03-27T08:37:36.927Z,67.01
2023-03-27T08:40:08.718Z,66.32
2023-03-27T08:42:40.418Z,67.07
2023-03-27T08:45:27.437Z,67.06
2023-03-27T08:48:02.544Z,67.96
2023-03-27T08:50:43.978Z,66.00
2023-03-27T08:53:47.741Z,65.97
2023-03-27T08:56:15.562Z,65.54
2023-03-27T08:58:43.291Z,64.94
2023-03-27T09:01:31.067Z,65.46
2023-03-27T09:04:20.639Z,64.02
2023-03-27T09:07:06.730Z,63.32
2023-03-27T09:10:09.330Z,63.84
2023-03-27T09:12:44.644Z,64.57
2023-03-27T09:15:27.898Z,63.80
2023-03-27T09:18:12.213Z,63.65
2023-03-27T09:20:50.893Z,63.12
2023-03-27T09:23:27.893Z,63.79
2023-03-27T09:26:01.968Z,66.02
2023-03-27T09:28:35.588Z,68.92
2023-03-27T09:31:29.513Z,71.46
2023-03-27T09:33:59.640Z,74.25
2023-03-27T09:36:26.028Z,74.68
2023-03-27T09:38:58.498Z,76.02
2023-03-27T09:41:48.734Z,76.27
2023-03-27T09:44:27.488Z,75.83
2023-03-27T09:47:02.675Z,76.21
2023-03-27T09:49:29.155Z,75.56
2023-03-27T09:51:58.189Z,75.22
2023-03-27T09:54:28.704Z,75.30
2023-03-27T09:56:58.168Z,75.52
2023-03-27T09:59:33.100Z,75.33
2023-03-27T10:02:09.117Z,75.26
2023-03-27T10:04:36.565Z,75.98
2023-03-27T10:07:07.832Z,75.30
2023-03-27T10:09:37.000Z,74.96
2023-03-27T10:12:16.580Z,75.63
2023-03-27T10:14:51.852Z,75.30
2023-03-27T10:17:27.519Z,75.09
2023-03-27T10:20:01.468Z,75.69
2023-03-27T10:22:34.346Z,74.75
2023-03-27T10:25:04.641Z,74.75
2023-03-27T10:27:34.380Z,74.92
2023-03-27T10:30:00.798Z,74.21
2023-03-27T10:32:45.098Z,74.19
2023-03-27T10:35:36.489Z,74.25
2023-03-27T10:38:12.306Z,73.76
2023-03-27T10:40:40.478Z,73.52
2023-03-27T10:43:13.066Z,72.87
2023-03-27T10:45:49.171Z,74.19
2023-03-27T10:48:37.258Z,72.38
2023-03-27T10:51:24.922Z,71.94
2023-03-27T10:53:59.184Z,72.38
2023-03-27T10:56:31.648Z,72.89
2023-03-27T10:59:02.753Z,72.41
2023-03-27T11:01:38.086Z,71.13
2023-03-27T11:04:15.128Z,69.53
2023-03-27T11:06:44.729Z,63.52
2023-03-27T11:09:20.310Z,66.15
2023-03-27T11:11:56.095Z,62.06
2023-03-27T11:14:38.635Z,61.29
2023-03-27T11:17:08.328Z,62.27
2023-03-27T11:19:52.204Z,59.91
2023-03-27T11:22:28.686Z,59.87
2023-03-27T11:25:14.632Z,62.09
2023-03-27T11:27:51.481Z,63.96
2023-03-27T11:30:39.044Z,65.05
2023-03-27T11:33:32.196Z,65.46
2023-03-27T11:36:06.528Z,68.69
2023-03-27T11:38:38.166Z,71.99
2023-03-27T11:41:04.852Z,72.52
2023-03-27T11:43:39.358Z,73.54
2023-03-27T11:46:08.639Z,72.72
2023-03-27T11:49:00.901Z,71.93
2023-03-27T11:51:48.428Z,73.25
2023-03-27T11:54:53.951Z,73.69
2023-03-27T11:57:24.129Z,74.32
2023-03-27T12:00:25.369Z,72.91
2023-03-27T12:03:08.529Z,69.19
2023-03-27T12:06:04.633Z,67.77
2023-03-27T12:08:51.446Z,68.47
2023-03-27T12:11:21.314Z,67.53
2023-03-27T12:14:05.505Z,66.53
2023-03-27T12:17:05.740Z,66.08
2023-03-27T12:20:01.397Z,63.95
2023-03-27T12:22:33.965Z,67.19
2023-03-27T12:25:15.235Z,69.50
2023-03-27T12:28:08.574Z,71.63
2023-03-27T12:31:09.488Z,71.86
2023-03-27T12:33:54.530Z,71.92
2023-03-27T12:36:24.711Z,72.76
2023-03-27T12:38:52.660Z,73.55
2023-03-27T12:41:24.598Z,73.99
2023-03-27T12:44:03.606Z,74.70
2023-03-27T12:46:33.327Z,74.60
2023-03-27T12:49:06.110Z,74.44
2023-03-27T12:51:42.193Z,74.87
2023-03-27T12:54:17.709Z,75.03
2023-03-27T12:56:44.103Z,73.98
2023-03-27T12:59:20.327Z,71.37
2023-03-27T13:02:01.039Z,71.68
2023-03-27T13:04:53.681Z,71.65
2023-03-27T13:07:53.387Z,71.18
2023-03-27T13:10:30.761Z,69.82
2023-03-27T13:13:23.530Z,69.88
2023-03-27T13:16:14.859Z,68.99
2023-03-27T13:19:12.858Z,68.63
2023-03-27T13:22:06.601Z,67.87
2023-03-27T13:25:00.544Z,66.93
2023-03-27T13:27:52.201Z,67.60
2023-03-27T13:30:45.324Z,68.16
2023-03-27T13:33:22.475Z,66.40
2023-03-27T13:35:59.517Z,67.17
2023-03-27T13:38:51.796Z,65.40
2023-03-27T13:41:40.198Z,66.50
2023-03-27T13:44:13.033Z,65.45
2023-03-27T13:46:45.052Z,64.75
2023-03-27T13:49:36.959Z,60.79
2023-03-27T13:52:21.564Z,62.87
2023-03-27T13:54:55.234Z,64.34
2023-03-27T13:58:03.138Z,63.71
2023-03-27T14:00:55.623Z,61.94
2023-03-27T14:03:41.794Z,63.55
2023-03-27T14:06:39.873Z,63.09
2023-03-27T14:09:44.690Z,63.27
2023-03-27T14:12:29.726Z,62.52
2023-03-27T14:15:10.634Z,61.47
2023-03-27T14:17:55.928Z,61.57
2023-03-27T14:20:30.088Z,60.85
2023-03-27T14:23:07.304Z,62.10
2023-03-27T14:25:38.240Z,63.33
2023-03-27T14:28:09.145Z,61.83
2023-03-27T14:30:48.141Z,62.15
2023-03-27T14:33:20.008Z,61.09
2023-03-27T14:35:54.660Z,60.34
2023-03-27T14:38:31.025Z,58.92
2023-03-27T14:41:22.199Z,59.54
2023-03-27T14:43:49.757Z,58.18
2023-03-27T14:46:17.621Z,57.31
2023-03-27T14:48:47.281Z,58.84
2023-03-27T14:51:20.801Z,59.45
2023-03-27T14:53:51.014Z,59.73
2023-03-27T14:56:26.397Z,59.09
2023-03-27T14:58:56.308Z,60.21
2023-03-27T15:01:22.935Z,60.19
2023-03-27T15:03:52.923Z,62.07
2023-03-27T15:06:25.777Z,64.12
2023-03-27T15:08:59.677Z,65.72
2023-03-27T15:11:33.417Z,66.13
2023-03-27T15:14:02.742Z,65.49
2023-03-27T15:16:34.221Z,63.18
2023-03-27T15:19:12.130Z,61.98
2023-03-27T15:21:46.916Z,61.68
2023-03-27T15:24:46.048Z,60.83
2023-03-27T15:27:25.246Z,55.15
2023-03-27T15:29:59.579Z,50.84
2023-03-27T15:32:32.369Z,53.54
2023-03-27T15:35:03.440Z,51.58
2023-03-27T15:37:31.713Z,50.64
2023-03-27T15:40:13.222Z,52.57
2023-03-27T15:43:00.148Z,54.60
2023-03-27T15:45:39.890Z,56.11
2023-03-27T15:48:21.759Z,54.74
2023-03-27T15:50:56.740Z,54.96
2023-03-27T15:53:45.187Z,55.90
2023-03-27T15:56:26.289Z,57.23
2023-03-27T15:59:00.438Z,57.46
2023-03-27T16:01:39.182Z,58.70
2023-03-27T16:04:13.257Z,59.56
2023-03-27T16:06:44.267Z,59.96
2023-03-27T16:09:32.796Z,61.69
2023-03-27T16:11:59.966Z,62.60
2023-03-27T16:14:40.724Z,62.43
2023-03-27T16:17:12.430Z,60.67
2023-03-27T16:19:55.399Z,62.02
2023-03-27T16:22:32.283Z,61.98
2023-03-27T16:25:00.828Z,61.56
2023-03-27T16:27:49.916Z,60.75
2023-03-27T16:30:21.463Z,57.72
2023-03-27T16:32:47.942Z,58.45
2023-03-27T16:35:14.540Z,54.89
2023-03-27T16:37:41.220Z,55.58
2023-03-27T16:40:08.279Z,53.99
2023-03-27T16:42:34.602Z,54.09
2023-03-27T16:45:01.742Z,56.37
2023-03-27T16:47:28.143Z,54.76
2023-03-27T16:50:10.276Z,55.12
2023-03-27T16:52:37.061Z,54.67
2023-03-27T16:55:07.022Z,54.67
2023-03-27T16:57:34.059Z,55.19
2023-03-27T17:00:00.701Z,55.31
2023-03-27T17:02:28.662Z,55.16
2023-03-27T17:04:55.173Z,57.25
2023-03-27T17:07:21.786Z,61.31
2023-03-27T17:09:48.212Z,62.78
2023-03-27T17:12:14.531Z,63.45
2023-03-27T17:14:40.887Z,64.48
2023-03-27T17:17:07.289Z,64.76
2023-03-27T17:19:33.711Z,65.44
2023-03-27T17:22:00.189Z,65.83
2023-03-27T17:24:26.593Z,66.00
2023-03-27T17:26:53.048Z,65.99
2023-03-27T17:29:19.629Z,66.24
2023-03-27T17:31:46.151Z,66.44
2023-03-27T17:34:13.071Z,66.55
2023-03-27T17:36:47.098Z,66.97
2023-03-27T17:39:18.900Z,66.94
2023-03-27T17:41:45.234Z,67.16
2023-03-27T17:44:12.242Z,67.12
2023-03-27T17:46:38.751Z,67.65
2023-03-27T17:49:05.218Z,67.62
2023-03-27T17:51:31.662Z,67.93
2023-03-27T17:53:58.382Z,67.44
2023-03-27T17:56:24.828Z,66.96
2023-03-27T17:58:51.238Z,67.21
2023-03-27T18:01:20.987Z,67.71
2023-03-27T18:03:48.450Z,67.73
2023-03-27T18:06:19.800Z,67.72
2023-03-27T18:08:47.202Z,67.77
2023-03-27T18:11:15.968Z,67.66
2023-03-27T18:13:42.785Z,67.61
2023-03-27T18:16:10.624Z,67.56
2023-03-27T18:18:38.991Z,67.07
2023-03-27T18:21:06.178Z,66.93
2023-03-27T18:23:34.725Z,66.54
2023-03-27T18:26:05.628Z,66.41
2023-03-27T18:28:32.060Z,65.75
2023-03-27T18:31:08.319Z,65.91
2023-03-27T18:33:35.105Z,64.53
2023-03-27T18:36:02.056Z,65.55
2023-03-27T18:38:29.627Z,64.55
2023-03-27T18:40:56.887Z,64.85
2023-03-27T18:43:23.858Z,63.81
2023-03-27T18:46:01.722Z,64.02
2023-03-27T18:48:30.808Z,63.58
2023-03-27T18:51:02.767Z,64.11
2023-03-27T18:53:30.187Z,63.98
2023-03-27T18:55:58.426Z,63.79
2023-03-27T18:58:27.304Z,64.10
2023-03-27T19:00:55.606Z,64.08
2023-03-27T19:03:24.489Z,63.16
2023-03-27T19:05:52.124Z,63.24
2023-03-27T19:08:20.173Z,63.84
2023-03-27T19:10:46.671Z,63.76
2023-03-27T19:13:13.041Z,64.23
2023-03-27T19:15:41.767Z,64.65
2023-03-27T19:18:08.332Z,65.04
2023-03-27T19:20:34.809Z,65.40
2023-03-27T19:23:01.387Z,65.51
2023-03-27T19:25:28.254Z,65.57
2023-03-27T19:27:54.905Z,65.57
2023-03-27T19:30:21.372Z,65.81
2023-03-27T19:32:47.843Z,65.54
2023-03-27T19:35:14.250Z,65.82
2023-03-27T19:37:41.692Z,65.43
2023-03-27T19:40:09.354Z,65.45
2023-03-27T19:42:36.208Z,65.61
2023-03-27T19:45:02.539Z,65.62
2023-03-27T19:47:28.988Z,65.75
2023-03-27T19:49:55.505Z,65.75
2023-03-27T19:52:22.605Z,65.68
2023-03-27T19:54:49.024Z,66.06
2023-03-27T19:57:15.477Z,66.33
2023-03-27T19:59:41.903Z,66.16
2023-03-27T20:02:11.612Z,66.31
2023-03-27T20:04:38.052Z,66.22
2023-03-27T20:07:07.003Z,66.32
2023-03-27T20:09:34.336Z,66.38
2023-03-27T20:12:01.236Z,66.41
2023-03-27T20:14:27.687Z,66.29
2023-03-27T20:16:54.320Z,66.60
2023-03-27T20:19:22.018Z,66.74
2023-03-27T20:21:48.857Z,67.12
2023-03-27T20:24:17.276Z,66.92
2023-03-27T20:26:47.859Z,67.29
2023-03-27T20:29:16.502Z,67.02
2023-03-27T20:31:42.993Z,67.41
2023-03-27T20:34:09.779Z,67.57
2023-03-27T20:36:38.781Z,67.32
2023-03-27T20:39:07.544Z,67.71
2023-03-27T20:41:38.935Z,68.19
2023-03-27T20:44:14.797Z,68.26
2023-03-27T20:46:50.857Z,68.48
2023-03-27T20:49:40.119Z,68.82
2023-03-27T20:52:09.440Z,68.85
2023-03-27T20:54:36.404Z,69.12
2023-03-27T20:57:03.121Z,69.20
2023-03-27T20:59:30.592Z,69.44
2023-03-27T21:01:57.548Z,69.22
2023-03-27T21:04:25.864Z,69.59
2023-03-27T21:06:54.878Z,69.94
2023-03-27T21:09:23.153Z,70.02
2023-03-27T21:11:49.564Z,70.06
2023-03-27T21:14:16.525Z,70.38
2023-03-27T21:16:43.051Z,70.23
2023-03-27T21:19:10.649Z,70.58
2023-03-27T21:21:37.195Z,70.36
2023-03-27T21:24:03.726Z,69.87
2023-03-27T21:26:30.254Z,70.24
2023-03-27T21:28:56.685Z,70.12
2023-03-27T21:31:23.063Z,70.17
2023-03-27T21:33:49.565Z,70.25
2023-03-27T21:36:16.164Z,70.22
2023-03-27T21:38:42.575Z,70.85
2023-03-27T21:41:13.151Z,70.83
2023-03-27T21:43:39.633Z,71.28
2023-03-27T21:46:06.373Z,71.43
2023-03-27T21:48:32.910Z,71.50
2023-03-27T21:51:04.625Z,71.61
2023-03-27T21:53:31.220Z,71.59
2023-03-27T21:55:58.545Z,71.57
2023-03-27T21:58:25.882Z,71.77
2023-03-27T22:00:54.662Z,71.88
2023-03-27T22:03:20.999Z,71.97
2023-03-27T22:05:57.422Z,72.15
2023-03-27T22:08:35.935Z,72.26
2023-03-27T22:11:02.421Z,72.48
2023-03-27T22:13:28.953Z,72.14
2023-03-27T22:15:56.144Z,72.56
2023-03-27T22:18:23.627Z,72.63
2023-03-27T22:20:50.156Z,72.92
2023-03-27T22:23:16.542Z,72.17
2023-03-27T22:25:42.926Z,72.43
2023-03-27T22:28:09.319Z,72.55
2023-03-27T22:30:35.823Z,72.68
2023-03-27T22:33:02.156Z,72.85
2023-03-27T22:35:28.675Z,72.40
2023-03-27T22:37:55.160Z,72.48
2023-03-27T22:40:21.547Z,72.53
2023-03-27T22:42:47.926Z,72.65
2023-03-27T22:45:14.380Z,72.79
2023-03-27T22:47:40.965Z,72.52
2023-03-27T22:50:08.594Z,72.66
2023-03-27T22:52:34.946Z,72.41
2023-03-27T22:55:01.349Z,72.49
2023-03-27T22:57:27.798Z,72.52
2023-03-27T22:59:54.192Z,73.02
2023-03-27T23:02:21.379Z,72.99
2023-03-27T23:04:47.768Z,73.31
2023-03-27T23:07:14.094Z,73.25
2023-03-27T23:09:40.732Z,73.41
2023-03-27T23:12:07.236Z,72.87
2023-03-27T23:14:33.672Z,72.88
2023-03-27T23:17:00.588Z,73.13
2023-03-27T23:19:27.078Z,72.75
2023-03-27T23:21:53.422Z,72.83
2023-03-27T23:24:19.791Z,72.52
2023-03-27T23:26:46.116Z,72.96
2023-03-27T23:29:12.471Z,72.81
2023-03-27T23:31:38.970Z,72.13
2023-03-27T23:34:05.589Z,72.88
2023-03-27T23:36:31.963Z,72.63
2023-03-27T23:38:58.403Z,73.07
2023-03-27T23:41:24.867Z,73.35
2023-03-27T23:43:51.374Z,72.98
2023-03-27T23:46:17.858Z,73.11
2023-03-27T23:48:44.740Z,73.13
2023-03-27T23:51:13.360Z,73.28
2023-03-27T23:53:40.398Z,72.84
2023-03-27T23:56:07.532Z,73.53
2023-03-27T23:58:34.039Z,72.94
